• Join FlightAware (Why Join?)
  • Login
  • US Flag 
07:39AM EDT


 

Airport Tracker/Info


-or-


 

Live Flight TrackerFlight Track Log ✈ SWA419 ✈ 02-Dec-2013 ✈ KOAK - KPHX

Flight Track Log - Related Links

Times and Time Zones

All times are in EST time to prevent confusion due to time zone crossing. See the SWA419 flight status page for this flight to view local times or setup timezone preferences in your user account.

Time Position Orientation Groundspeed Altitude Reporting Facility
EST Latitude Longitude Course Direction KTS MPH feet Rate Location/Type
09:33PM 37.7333 -122.2667 132° Southeast 167 192 2,200  Level Northern Cal TRACON
09:34PM 37.7333 -122.3333 270° West 226 260 5,200 3,060 Climbing Northern Cal TRACON
09:35PM 37.6667 -122.3500 191° South 305 351 8,400 3,000 Climbing Northern Cal TRACON
09:36PM 37.5833 -122.3167 162° South 358 412 11,300 3,060 Climbing Northern Cal TRACON
09:36PM 37.5167 -122.2333 135° Southeast 394 453 14,300 2,880 Climbing Northern Cal TRACON
09:38PM 37.4417 -121.4466 132° Southeast  Level Estimated
09:39PM 37.3453 -122.0094 134° Southeast 422 486 20,400  Level Los Angeles Center
09:40PM 37.2653 -121.8886 130° Southeast 442 509 23,200 2,340 Climbing Los Angeles Center
09:41PM 37.1792 -121.7650 131° Southeast 461 531 25,300 2,160 Climbing Los Angeles Center
09:42PM 37.0911 -121.6378 131° Southeast 477 549 27,700 1,800 Climbing Los Angeles Center
09:43PM 36.9825 -121.4847 132° Southeast 488 562 29,000 600 Climbing Los Angeles Center
09:44PM 36.8892 -121.3497 131° Southeast 507 583 29,000  Level Los Angeles Center
09:45PM 36.8250 -121.1872 116° Southeast 524 603 29,000  Level Los Angeles Center
09:46PM 36.7686 -121.0189 113° Southeast 525 604 29,000  Level Los Angeles Center
09:47PM 36.6975 -120.8575 119° Southeast 534 615 29,000  Level Los Angeles Center
09:48PM 36.5781 -120.7008 133° Southeast 520 598 29,000  Level Oakland Center
09:49PM 36.4789 -120.5678 133° Southeast 521 600 29,000  Level Oakland Center
09:50PM 36.3775 -120.4417 135° Southeast 519 597 29,000  Level Oakland Center
09:51PM 36.2786 -120.3128 134° Southeast 515 593 29,000  Level Oakland Center
09:52PM 36.1794 -120.1864 134° Southeast 512 589 29,000  Level Oakland Center
09:53PM 36.0800 -120.0603 134° Southeast 511 588 29,000  Level Oakland Center
09:54PM 35.9817 -119.9356 134° Southeast 506 582 29,000  Level Oakland Center
09:55PM 35.8808 -119.8094 135° Southeast 511 588 29,000  Level Oakland Center
09:56PM 35.7814 -119.6803 133° Southeast 515 593 29,000  Level Oakland Center
09:57PM 35.7097 -119.5292 120° Southeast 511 588 29,000  Level Oakland Center
09:58PM 35.6456 -119.3739 117° Southeast 512 589 29,000  Level Los Angeles Center
09:59PM 35.5931 -119.2486 117° Southeast 513 590 29,000  Level Los Angeles Center
10:00PM 35.5144 -119.0650 118° Southeast 509 586 29,000  Level Los Angeles Center
10:01PM 35.4525 -118.9114 116° Southeast 504 580 29,000  Level Los Angeles Center
10:02PM 35.3758 -118.7281 117° Southeast 505 581 29,000  Level Los Angeles Center
10:03PM 35.3114 -118.5758 117° Southeast 505 581 29,000  Level Los Angeles Center
10:04PM 35.2514 -118.4356 118° Southeast 506 582 29,000  Level Los Angeles Center
10:05PM 35.1864 -118.2850 118° Southeast 504 580 29,000  Level Los Angeles Center
10:06PM 35.1219 -118.1353 118° Southeast 501 577 29,000  Level Los Angeles Center
10:07PM 35.0439 -117.9556 118° Southeast 504 580 29,000  Level Los Angeles Center
10:08PM 34.9769 -117.8047 118° Southeast 510 587 29,000  Level Los Angeles Center
10:09PM 34.9117 -117.6547 118° Southeast 514 592 29,000  Level Los Angeles Center
10:10PM 34.8481 -117.5064 118° Southeast 506 582 29,000  Level Los Angeles Center
10:11PM 34.7822 -117.3558 118° Southeast 511 588 29,000  Level Los Angeles Center
10:12PM 34.7033 -117.1756 118° Southeast 507 583 29,000  Level Los Angeles Center
10:14PM 34.6242 -116.9961 118° Southeast 504 580 29,000  Level Los Angeles Center
10:15PM 34.5703 -116.8769 119° Southeast 504 580 29,000  Level Los Angeles Center
10:16PM 34.4889 -116.6978 119° Southeast 503 579 29,000  Level Los Angeles Center
10:17PM 34.4222 -116.5458 118° Southeast 508 585 29,000  Level Los Angeles Center
10:18PM 34.3417 -116.3650 118° Southeast 511 588 29,000  Level Los Angeles Center
10:19PM 34.2742 -116.2161 119° Southeast 506 582 29,000  Level Los Angeles Center
10:20PM 34.2053 -116.0692 120° Southeast 505 581 29,000  Level Los Angeles Center
10:21PM 34.1253 -115.8936 119° Southeast 508 585 29,000  Level Los Angeles Center
10:22PM 34.0572 -115.7447 119° Southeast 508 585 29,000  Level Los Angeles Center
10:23PM 33.9883 -115.5914 118° Southeast 516 594 29,000  Level Los Angeles Center
10:24PM 33.9333 -115.4294 112° Southeast 521 600 29,000  Level Los Angeles Center
10:25PM 33.8775 -115.2667 112° Southeast 525 604 29,000  Level Los Angeles Center
10:27PM 33.7992 -115.0406 113° Southeast 523 602 29,000  Level Los Angeles Center
10:28PM 33.7200 -114.8150 113° Southeast 523 602 29,000  Level Los Angeles Center
10:29PM 33.6644 -114.6542 113° Southeast 520 598 29,000  Level Los Angeles Center
10:30PM 33.5961 -114.4628 113° Southeast 520 598 29,000 -60 Level Los Angeles Center
10:31PM 33.5572 -114.3408 111° Southeast 520 598 28,900 -2,040 Descending Albuquerque Center
10:32PM 33.4889 -114.1531 114° Southeast 516 594 25,200 -1,320 Descending Albuquerque Center
10:34PM 33.4317 -113.8464 103° East 470 541 25,000 -120 Descending Albuquerque Center
10:35PM 33.4089 -113.6950 100° East 463 533 25,000  Level Albuquerque Center
10:36PM 33.3867 -113.5417 100° East 466 536 25,000 -720 Level Albuquerque Center
10:37PM 33.3650 -113.3889 100° East 466 536 23,600 -1,800 Descending Albuquerque Center
10:38PM 33.3431 -113.2425 100° East 454 522 21,400 -2,100 Descending Albuquerque Center
10:39PM 33.3225 -113.1017 100° East 438 504 19,300 -2,040 Descending Albuquerque Center
10:40PM 33.3025 -112.9664 100° East 420 483 17,200 -1,620 Descending Albuquerque Center
10:41PM 33.2800 -112.8131 100° East 398 458 16,000 -600 Descending Albuquerque Center
10:42PM 33.2825 -112.6883 89° East 377 434 16,000 -840 Level Albuquerque Center
10:43PM 33.2858 -112.5625 88° East 375 432 14,400 -1,800 Descending Albuquerque Center
10:44PM 33.2903 -112.4428 87° East 366 421 12,400 -1,980 Descending Albuquerque Center
10:45PM 33.2942 -112.3261 88° East 356 410 10,400 -1,260 Descending Albuquerque Center
10:46PM 33.3017 -112.2189 85° East 329 379 9,900 -660 Descending Albuquerque Center
10:47PM 33.3086 -112.1239 85° East 294 338 9,100 -840 Descending Albuquerque Center
10:48PM 33.3250 -112.0403 77° East 261 300 8,200 -1,020 Descending Albuquerque Center
10:49PM 33.3444 -111.9581 74° East 257 296 7,100 -1,620 Descending Albuquerque Center
10:50PM 33.3503 -111.8719 85° East 217 250 4,900 -1,740 Descending Albuquerque Center
10:51PM 33.3947 -111.8603 12° North 167 192 3,600 -1,140 Descending Albuquerque Center
10:52PM 33.4167 -111.8833 319° Northwest 152 175 2,900 -780 Descending Phoenix TRACON
10:53PM 33.4333 -111.9333 292° West 143 165 2,300 -720 Descending Phoenix TRACON
10:54PM 33.4333 -111.9833 270° West 148 170 1,500 -840 Descending Phoenix TRACON